Detall de PIREP

Printer-friendly versionPDF version

[2015/04/04 15:51:00]
Flight IATA:CT1004
Pilot Number:042
Company ICAO:CAT
Aircraft Type:B738/F
PAX:110
Departing Airport: LEPA
Destination Airport: GCLP
Alternate Airport:GCXO
Online: VATSIM
Route:BAVER UM603 ALT UN851 RESTU UN860 BERUM UG850 FES/N0478F410 UT901 MAK UG850 ADM UN869 RUSIK
Flight Level:F350
No Slew and time accel
No pause
Crash detect
Detect pilot in Cockpit between each 30 and 45 minutes
15:51 Zero fuel Weight: 121806 Lbs, Fuel Weight: 46000 Lbs
15:51 VATSIM:LEPA 041530Z 22010KT 9999 SCT038 17/10 Q1013 NOSIG
15:51 VATSIM:GCLP 041530Z 36018KT 9999 BKN035 20/11 Q1014 WS ALL RWY NOSIG
16:28 Parking Brakes off
16:41 Take-off
16:41 Take off Weight: 166283 Lbs
16:41 Wind: 000º @ 000 Knots Heading: 237º
16:41 POS N39º 33´ 09´´ E002º 43´ 20´´
16:41 Gear Up: 162 Knots
16:41 Flaps:4 at 162 Knots
16:41 Flaps:3 at 156 Knots
16:42 Flaps:4 at 159 Knots
16:43 Flaps:3 at 174 Knots
16:44 Flaps:2 at 229 Knots
16:45 Flaps:1 at 182 Knots
16:45 Flaps:0 at 187 Knots
16:56 Wind:270º@025 Knots Heading: 246º Ground Speed: 431 Knots Altitude 25554 ft
17:05 TOC
17:05 Fuel Weight: 39431 Lb
17:11 Wind:270º@025 Knots Heading: 244º Ground Speed: 431 Knots Altitude 34996 ft
17:26 Wind:270º@025 Knots Heading: 218º Ground Speed: 439 Knots Altitude 34996 ft
17:41 Wind:270º@025 Knots Heading: 220º Ground Speed: 438 Knots Altitude 34996 ft
17:56 Wind:270º@025 Knots Heading: 224º Ground Speed: 436 Knots Altitude 34993 ft
18:11 Wind:270º@025 Knots Heading: 230º Ground Speed: 435 Knots Altitude 34996 ft
18:26 Wind:270º@025 Knots Heading: 222º Ground Speed: 437 Knots Altitude 34993 ft
18:41 Wind:270º@025 Knots Heading: 246º Ground Speed: 430 Knots Altitude 34996 ft
18:56 Wind:270º@025 Knots Heading: 245º Ground Speed: 430 Knots Altitude 34996 ft
19:11 Wind:270º@025 Knots Heading: 244º Ground Speed: 431 Knots Altitude 34993 ft
19:13 TOD
19:13 Fuel Weight: 27510 Lb
19:26 Wind:270º@022 Knots Heading: 257º Ground Speed: 322 Knots Altitude 11171 ft
19:35 Gear Down: 214 Knots
19:35 Flaps:1 at 212 Knots
19:35 Flaps:0 at 195 Knots
19:41 Wind:331º@006 Knots Heading: 233º Ground Speed: 207 Knots Altitude 4465 ft
19:43 Gear Up: 188 Knots
19:43 Flaps:1 at 188 Knots
19:43 Gear Down: 187 Knots
19:45 Flaps:2 at 180 Knots
19:49 Gear Up: 179 Knots
19:49 Flaps:3 at 179 Knots
19:49 Gear Down: 178 Knots
19:49 Flaps:4 at 174 Knots
19:49 Flaps:5 at 172 Knots
19:49 Flaps:6 at 170 Knots
19:50 Flaps:7 at 168 Knots
19:51 Flaps:8 at 157 Knots
19:54 TouchDown:Rate -234 ft/min Speed: 112 Knots
19:54 VATSIM:GCLP 041930Z 36015KT 9999 FEW025 BKN045 18/11 Q1015 WS ALL RWY NOSIG
19:54 Land
19:54 Wind:000º@000 Knots
19:54 Heading: 024º
19:54 Flight Duration: 03:13
19:54 Landing Weight: 146165 Lbs
19:54 POS N27º 55´ 47´´ W015º 23´ 14´´
19:58 Parking brakes on
19:58 Block to Block Duration: 03:30
19:58 Final Fuel: 24021 Lbls
19:58 Spent Fuel: 21979 Lbls
19:58 Flight Length: 1254 NM
19:58 TOD Land Length: 179 NM

Exportar CSV

Powered by Drupal - Modified by Danger4k